Time;durP1;ratioP1;P1;durP2;ratioP2;P2;SDS_P1;SDS_P2;PMS_P1;PMS_P2;Temp;Humidity;BMP_temperature;BMP_pressure;BME280_temperature;BME280_humidity;BME280_pressure;Samples;Min_cycle;Max_cycle;Signal;HPM_P1;HPM_P2
2023/03/23 00:00:47;;;;;;;0.00;0.00;;;12.50;99.90;;;;;;4970879;28;20591;-92
2023/03/23 00:03:13;;;;;;;0.00;0.00;;;;;;;;;;4972039;28;20022;-92
2023/03/23 00:05:41;;;;;;;0.00;0.00;;;12.50;99.90;;;;;;4970015;28;20051;-91
2023/03/23 00:08:08;;;;;;;0.00;0.00;;;12.40;99.90;;;;;;4969536;28;20165;-91
2023/03/23 00:10:35;;;;;;;0.00;0.00;;;12.50;99.90;;;;;;4969180;28;20171;-91
2023/03/23 00:13:02;;;;;;;0.00;0.00;;;;;;;;;;4968806;28;20039;-91
2023/03/23 00:15:32;;;;;;;0.00;0.00;;;;;;;;;;4972055;28;20061;-93
2023/03/23 00:18:02;;;;;;;0.00;0.00;;;;;;;;;;4979760;28;20548;-93
2023/03/23 00:20:39;;;;;;;0.00;0.00;;;12.10;99.90;;;;;;4973867;28;20046;-93
2023/03/23 00:23:06;;;;;;;0.00;0.00;;;;;;;;;;4978205;28;20050;-93
2023/03/23 00:25:32;;;;;;;0.00;0.00;;;;;;;;;;4978850;28;20042;-93
2023/03/23 00:27:58;;;;;;;0.00;0.00;;;;;;;;;;4976026;28;20031;-94
2023/03/23 00:30:24;;;;;;;0.00;0.00;;;;;;;;;;4971310;28;20039;-93
2023/03/23 00:32:50;;;;;;;0.00;0.00;;;;;;;;;;4971850;28;20034;-94
2023/03/23 00:35:17;;;;;;;0.00;0.00;;;;;;;;;;4977954;28;20034;-94
2023/03/23 00:37:43;;;;;;;0.00;0.00;;;;;;;;;;4975415;28;20046;-91
2023/03/23 00:40:10;;;;;;;0.00;0.00;;;12.10;99.90;;;;;;4978579;28;20041;-93
2023/03/23 00:42:37;;;;;;;0.00;0.00;;;;;;;;;;4987008;28;20163;-92
2023/03/23 00:45:10;;;;;;;0.00;0.00;;;;;;;;;;4972367;28;20037;-94
2023/03/23 00:47:36;;;;;;;0.00;0.00;;;;;;;;;;4974563;28;20035;-93
2023/03/23 00:50:05;;;;;;;0.03;0.03;;;12.00;99.90;;;;;;4979089;28;20054;-93
2023/03/23 00:52:30;;;;;;;0.00;0.00;;;;;;;;;;4972310;28;20210;-93
2023/03/23 00:54:56;;;;;;;0.00;0.00;;;;;;;;;;4975341;28;20030;-93
2023/03/23 00:57:24;;;;;;;0.00;0.00;;;;;;;;;;4977053;28;20031;-94
2023/03/23 00:59:50;;;;;;;0.00;0.00;;;;;;;;;;4974484;28;20039;-94
2023/03/23 01:02:17;;;;;;;0.00;0.00;;;;;;;;;;4979955;28;20027;-93
2023/03/23 01:04:44;;;;;;;0.00;0.00;;;;;;;;;;4984571;28;20115;-94
2023/03/23 01:07:12;;;;;;;0.00;0.00;;;;;;;;;;4983300;28;20031;-93
2023/03/23 01:09:39;;;;;;;0.00;0.00;;;;;;;;;;4982806;28;20039;-93
2023/03/23 01:12:06;;;;;;;0.00;0.00;;;;;;;;;;4976129;28;20081;-92
2023/03/23 01:14:32;;;;;;;0.00;0.00;;;;;;;;;;4976495;28;20031;-95
2023/03/23 01:16:58;;;;;;;0.00;0.00;;;;;;;;;;4981423;28;20061;-93
2023/03/23 01:19:24;;;;;;;0.00;0.00;;;;;;;;;;4987018;28;20031;-92
2023/03/23 01:21:50;;;;;;;0.00;0.00;;;;;;;;;;4976455;28;20078;-94
2023/03/23 01:24:16;;;;;;;0.00;0.00;;;;;;;;;;4977765;28;20027;-94
2023/03/23 01:26:42;;;;;;;0.00;0.00;;;;;;;;;;4966880;28;20505;-94
2023/03/23 01:29:08;;;;;;;0.00;0.00;;;;;;;;;;4973958;28;20030;-92
2023/03/23 01:31:36;;;;;;;0.00;0.00;;;;;;;;;;4973472;28;20450;-93
2023/03/23 01:34:02;;;;;;;0.00;0.00;;;;;;;;;;4974520;28;20409;-93
2023/03/23 01:36:32;;;;;;;0.00;0.00;;;11.90;99.90;;;;;;4975322;28;20042;-92
2023/03/23 01:38:59;;;;;;;;;;;13.80;99.90;;;;;;4976020;28;20046;-91
2023/03/23 01:41:25;;;;;;;0.00;0.00;;;;;;;;;;4976350;28;19922;-93
2023/03/23 01:44:06;;;;;;;0.00;0.00;;;12.00;99.90;;;;;;4973544;28;20075;-93
2023/03/23 01:46:36;;;;;;;0.00;0.00;;;11.90;99.90;;;;;;4966617;28;20121;-92
2023/03/23 01:49:06;;;;;;;;;;;11.00;99.90;;;;;;4978410;28;20082;-92
2023/03/23 01:51:35;;;;;;;0.00;0.00;;;11.90;99.90;;;;;;4973552;28;19911;-94
2023/03/23 01:54:04;;;;;;;0.00;0.00;;;11.80;99.90;;;;;;4979378;28;20031;-93
2023/03/23 01:56:37;;;;;;;0.00;0.00;;;11.90;99.90;;;;;;4977979;28;20027;-94
2023/03/23 01:59:04;;;;;;;0.00;0.00;;;;;;;;;;4980302;28;20030;-93
2023/03/23 02:01:30;;;;;;;0.00;0.00;;;;;;;;;;4975173;28;22068;-93
2023/03/23 02:03:57;;;;;;;0.00;0.00;;;11.80;99.90;;;;;;4977860;28;20043;-94
2023/03/23 02:06:24;;;;;;;0.00;0.00;;;;;;;;;;4977858;28;20132;-93
2023/03/23 02:08:51;;;;;;;0.00;0.00;;;11.80;99.90;;;;;;4983221;28;20046;-94
2023/03/23 02:11:20;;;;;;;0.00;0.00;;;11.90;99.90;;;;;;4977657;28;20785;-93
2023/03/23 02:13:47;;;;;;;0.00;0.00;;;11.90;99.90;;;;;;4975585;28;20064;-92
2023/03/23 02:16:36;;;;;;;0.00;0.00;;;11.90;99.90;;;;;;4977073;28;20042;-92
2023/03/23 02:19:10;;;;;;;0.00;0.00;;;11.90;99.90;;;;;;4975892;28;20561;-93
2023/03/23 02:21:36;;;;;;;0.00;0.00;;;;;;;;;;4978910;28;20042;-93
2023/03/23 02:24:24;;;;;;;0.00;0.00;;;11.90;99.90;;;;;;4983314;28;20050;-92
2023/03/23 02:26:59;;;;;;;0.00;0.00;;;11.80;99.90;;;;;;4977260;28;20030;-93
2023/03/23 02:29:56;;;;;;;0.00;0.00;;;11.90;99.90;;;;;;4977716;28;20027;-93
2023/03/23 02:32:42;;;;;;;0.00;0.00;;;12.00;99.90;;;;;;4980536;28;20117;-92
2023/03/23 02:35:19;;;;;;;0.00;0.00;;;11.90;99.90;;;;;;4994692;28;20057;-94
2023/03/23 02:37:59;;;;;;;0.00;0.00;;;11.90;99.90;;;;;;4980108;28;20103;-93
2023/03/23 02:40:32;;;;;;;0.00;0.00;;;11.80;99.90;;;;;;4968804;28;20123;-92
2023/03/23 02:43:00;;;;;;;0.00;0.00;;;11.90;99.90;;;;;;4977639;28;20106;-93
2023/03/23 02:45:28;;;;;;;0.00;0.00;;;11.90;99.90;;;;;;4981403;28;20093;-94
2023/03/23 02:47:55;;;;;;;0.00;0.00;;;11.90;99.90;;;;;;4981197;28;20047;-92
2023/03/23 02:50:25;;;;;;;0.00;0.00;;;11.90;99.90;;;;;;4978380;28;20754;-92
2023/03/23 02:52:53;;;;;;;0.05;0.05;;;11.90;99.90;;;;;;4973370;28;20063;-93
2023/03/23 04:20:39;;;;;;;0.00;0.00;;;11.70;99.90;;;;;;4984418;28;20062;-84
2023/03/23 04:23:05;;;;;;;0.10;0.10;;;11.70;99.90;;;;;;5001417;28;20069;-85
2023/03/23 04:25:32;;;;;;;0.00;0.00;;;11.60;99.90;;;;;;4986436;28;20042;-85
2023/03/23 04:28:00;;;;;;;0.00;0.00;;;11.60;99.90;;;;;;4985668;28;20050;-86
2023/03/23 04:30:27;;;;;;;0.10;0.10;;;11.60;99.90;;;;;;4995105;28;20037;-85
2023/03/23 04:32:54;;;;;;;0.00;0.00;;;11.70;99.90;;;;;;4987940;28;20030;-88
2023/03/23 04:35:26;;;;;;;0.00;0.00;;;11.70;99.90;;;;;;4986543;28;20035;-86
2023/03/23 04:37:53;;;;;;;0.00;0.00;;;11.70;99.90;;;;;;4989535;28;20054;-86
2023/03/23 04:40:19;;;;;;;0.00;0.00;;;11.70;99.90;;;;;;4994598;28;20090;-85
2023/03/23 04:42:46;;;;;;;0.00;0.00;;;;;;;;;;4986250;28;20039;-86
2023/03/23 04:45:14;;;;;;;0.00;0.00;;;11.70;99.90;;;;;;4980791;28;20023;-85
2023/03/23 04:47:41;;;;;;;0.00;0.00;;;11.70;99.90;;;;;;4985010;28;20029;-87
2023/03/23 04:50:12;;;;;;;0.00;0.00;;;11.70;99.90;;;;;;4984564;28;20027;-86
2023/03/23 04:52:40;;;;;;;0.00;0.00;;;11.70;99.90;;;;;;4988243;28;20499;-86
2023/03/23 04:55:07;;;;;;;0.00;0.00;;;11.70;99.90;;;;;;4987140;28;20788;-85
2023/03/23 04:57:34;;;;;;;0.00;0.00;;;11.60;99.90;;;;;;4985646;28;20084;-86
2023/03/23 05:00:00;;;;;;;0.00;0.00;;;11.60;99.90;;;;;;4988864;28;20996;-87
2023/03/23 05:02:29;;;;;;;0.00;0.00;;;11.70;99.90;;;;;;4984839;28;20030;-86
2023/03/23 05:04:56;;;;;;;0.00;0.00;;;11.70;99.90;;;;;;4981621;28;20454;-85
2023/03/23 05:07:22;;;;;;;0.00;0.00;;;11.60;99.90;;;;;;4980393;28;20031;-86
2023/03/23 05:09:48;;;;;;;0.00;0.00;;;;;;;;;;4978136;28;20034;-86
2023/03/23 05:12:15;;;;;;;0.00;0.00;;;;;;;;;;4986875;28;20026;-86
2023/03/23 05:14:41;;;;;;;0.00;0.00;;;11.60;99.90;;;;;;4988487;28;20097;-87
2023/03/23 05:17:08;;;;;;;0.00;0.00;;;11.70;99.90;;;;;;4993078;28;20619;-87
2023/03/23 05:19:35;;;;;;;0.00;0.00;;;11.80;99.90;;;;;;4997654;28;20061;-85
2023/03/23 05:22:03;;;;;;;0.00;0.00;;;11.80;99.90;;;;;;4999694;28;20026;-86
2023/03/23 05:24:32;;;;;;;0.00;0.00;;;11.80;99.90;;;;;;4993897;28;20233;-87
2023/03/23 05:26:58;;;;;;;0.00;0.00;;;;;;;;;;4994497;28;20064;-88
2023/03/23 05:29:24;;;;;;;0.00;0.00;;;11.70;99.90;;;;;;4992419;28;20031;-87
2023/03/23 05:31:49;;;;;;;0.00;0.00;;;11.70;99.90;;;;;;4994287;28;20590;-87
2023/03/23 05:34:15;;;;;;;0.00;0.00;;;;;;;;;;4997989;28;20036;-87
2023/03/23 05:36:43;;;;;;;0.00;0.00;;;11.80;99.90;;;;;;4995610;28;20037;-86
2023/03/23 05:39:10;;;;;;;0.00;0.00;;;11.80;99.90;;;;;;4999667;28;20497;-87
2023/03/23 05:41:36;;;;;;;0.00;0.00;;;11.90;99.90;;;;;;5002735;28;20097;-87
2023/03/23 05:44:02;;;;;;;0.10;0.10;;;11.90;99.90;;;;;;5013159;28;20440;-85
2023/03/23 05:46:27;;;;;;;0.00;0.00;;;11.90;99.90;;;;;;4991563;28;20030;-88
2023/03/23 05:48:53;;;;;;;0.00;0.00;;;11.90;99.90;;;;;;4992180;28;20331;-86
2023/03/23 05:51:19;;;;;;;0.00;0.00;;;;;;;;;;4989709;28;20034;-86
2023/03/23 05:53:47;;;;;;;0.00;0.00;;;;;;;;;;4991685;28;20509;-85
2023/03/23 05:56:12;;;;;;;0.00;0.00;;;11.80;99.90;;;;;;4987052;28;20015;-86
2023/03/23 05:58:38;;;;;;;0.00;0.00;;;11.80;99.90;;;;;;4989047;28;20030;-86
2023/03/23 06:01:07;;;;;;;0.00;0.00;;;11.80;99.90;;;;;;4984517;28;20448;-86
2023/03/23 06:03:35;;;;;;;0.00;0.00;;;11.80;99.90;;;;;;4985837;28;20027;-87
2023/03/23 06:06:02;;;;;;;0.00;0.00;;;11.70;99.90;;;;;;4991280;28;20076;-88
2023/03/23 06:08:28;;;;;;;0.00;0.00;;;11.80;99.90;;;;;;4993217;28;20022;-88
2023/03/23 06:10:53;;;;;;;0.00;0.00;;;11.80;99.90;;;;;;4986635;28;20030;-88
2023/03/23 06:13:19;;;;;;;0.00;0.00;;;11.90;99.90;;;;;;4993128;28;20022;-88
2023/03/23 06:15:45;;;;;;;0.00;0.00;;;11.90;99.90;;;;;;4986990;28;20042;-86
2023/03/23 06:18:12;;;;;;;0.00;0.00;;;12.00;99.90;;;;;;4995704;28;20596;-85
2023/03/23 06:20:38;;;;;;;0.00;0.00;;;12.00;99.90;;;;;;4990633;28;20034;-88
2023/03/23 06:23:04;;;;;;;0.00;0.00;;;12.10;99.90;;;;;;4984857;28;20035;-86
2023/03/23 06:25:30;;;;;;;0.00;0.00;;;12.10;99.90;;;;;;4989497;28;20037;-88
2023/03/23 06:27:56;;;;;;;0.00;0.00;;;11.50;99.90;;;;;;4987388;28;20076;-86
2023/03/23 06:30:21;;;;;;;0.00;0.00;;;12.20;99.90;;;;;;4986791;28;20505;-87
2023/03/23 06:32:47;;;;;;;0.00;0.00;;;;;;;;;;4991626;28;20018;-85
2023/03/23 06:35:13;;;;;;;0.00;0.00;;;12.20;99.90;;;;;;4992613;28;20034;-87
2023/03/23 06:37:40;;;;;;;0.00;0.00;;;;;;;;;;4988019;28;20049;-86
2023/03/23 06:40:06;;;;;;;0.00;0.00;;;12.20;99.90;;;;;;4992038;28;20033;-86
2023/03/23 06:42:32;;;;;;;0.00;0.00;;;12.20;99.90;;;;;;4996754;28;20057;-86
2023/03/23 06:45:00;;;;;;;0.00;0.00;;;12.20;99.90;;;;;;4986351;28;20081;-86
2023/03/23 06:47:26;;;;;;;0.00;0.00;;;12.30;99.90;;;;;;4985762;28;20022;-87
2023/03/23 06:49:51;;;;;;;0.00;0.00;;;12.30;99.90;;;;;;4987215;28;20743;-86
2023/03/23 06:52:17;;;;;;;0.00;0.00;;;12.30;99.90;;;;;;4996350;28;20026;-87
2023/03/23 06:54:43;;;;;;;0.00;0.00;;;12.40;99.90;;;;;;5004836;28;20093;-86
2023/03/23 06:57:08;;;;;;;0.00;0.00;;;12.40;99.90;;;;;;4996097;28;20041;-86
2023/03/23 06:59:34;;;;;;;0.00;0.00;;;12.40;99.90;;;;;;4986812;28;20509;-85
2023/03/23 07:02:00;;;;;;;0.00;0.00;;;12.40;99.90;;;;;;4992850;28;20487;-87
2023/03/23 07:04:25;;;;;;;0.00;0.00;;;12.50;99.90;;;;;;5011311;28;20085;-87
2023/03/23 07:06:51;;;;;;;0.00;0.00;;;12.40;99.90;;;;;;4988306;28;20065;-88
2023/03/23 07:09:16;;;;;;;0.00;0.00;;;12.50;99.90;;;;;;4996666;28;20065;-87
2023/03/23 07:11:43;;;;;;;0.00;0.00;;;12.60;99.90;;;;;;4986998;28;20027;-88
2023/03/23 07:14:08;;;;;;;0.00;0.00;;;12.60;99.90;;;;;;4997502;28;20029;-88
2023/03/23 07:16:34;;;;;;;0.00;0.00;;;;;;;;;;4991320;28;20042;-88
2023/03/23 07:19:00;;;;;;;0.00;0.00;;;12.60;99.90;;;;;;4994400;28;20030;-88
2023/03/23 07:21:26;;;;;;;0.00;0.00;;;12.60;99.90;;;;;;4988396;28;20030;-87
2023/03/23 07:23:52;;;;;;;0.00;0.00;;;12.70;99.90;;;;;;4990564;28;20689;-88
2023/03/23 07:26:17;;;;;;;0.00;0.00;;;12.70;99.90;;;;;;5003215;28;20039;-87
2023/03/23 07:28:43;;;;;;;0.10;0.10;;;12.90;99.90;;;;;;4987345;28;20105;-86
2023/03/23 07:31:09;;;;;;;0.00;0.00;;;12.90;99.90;;;;;;4990037;28;20018;-87
2023/03/23 07:33:35;;;;;;;0.00;0.00;;;13.00;99.90;;;;;;4994591;28;20022;-88
2023/03/23 07:36:02;;;;;;;0.00;0.00;;;13.00;99.90;;;;;;4990433;28;20050;-88
2023/03/23 07:38:28;;;;;;;0.00;0.00;;;13.10;99.90;;;;;;4993843;28;20432;-86
2023/03/23 07:40:54;;;;;;;0.00;0.00;;;13.20;99.90;;;;;;4982180;28;20027;-87
2023/03/23 07:43:20;;;;;;;0.00;0.00;;;13.20;99.90;;;;;;4998114;28;20118;-87
2023/03/23 07:45:46;;;;;;;0.00;0.00;;;13.40;99.90;;;;;;4989877;28;20031;-87
2023/03/23 07:48:12;;;;;;;0.00;0.00;;;13.60;99.90;;;;;;4995138;28;20018;-87
2023/03/23 07:50:38;;;;;;;0.00;0.00;;;;;;;;;;4994876;28;20105;-85
2023/03/23 07:53:04;;;;;;;0.00;0.00;;;;;;;;;;4992897;28;20521;-88
2023/03/23 07:55:30;;;;;;;0.00;0.00;;;13.70;99.90;;;;;;4991797;28;20035;-86
2023/03/23 07:57:56;;;;;;;0.00;0.00;;;13.70;99.90;;;;;;4988796;28;20037;-88
2023/03/23 08:00:23;;;;;;;0.00;0.00;;;13.80;99.90;;;;;;4989718;28;20022;-86
2023/03/23 08:02:51;;;;;;;0.00;0.00;;;13.90;99.90;;;;;;4998179;28;20038;-88
2023/03/23 08:05:20;;;;;;;0.00;0.00;;;13.90;99.90;;;;;;4989248;28;20027;-87
2023/03/23 08:07:47;;;;;;;0.00;0.00;;;13.80;99.90;;;;;;4989592;28;20489;-88
2023/03/23 08:10:14;;;;;;;0.00;0.00;;;13.80;99.90;;;;;;4987471;28;20082;-86
2023/03/23 08:12:41;;;;;;;0.00;0.00;;;13.80;99.90;;;;;;4989562;28;20390;-88
2023/03/23 08:15:08;;;;;;;0.00;0.00;;;13.90;99.90;;;;;;4996810;28;20555;-87
2023/03/23 08:17:35;;;;;;;0.00;0.00;;;13.90;99.90;;;;;;5002220;28;20435;-88
2023/03/23 08:20:08;;;;;;;0.00;0.00;;;13.90;99.90;;;;;;4990851;28;20491;-87
2023/03/23 08:22:33;;;;;;;0.00;0.00;;;14.00;99.90;;;;;;4997917;28;20486;-86
2023/03/23 08:25:00;;;;;;;0.00;0.00;;;13.90;99.90;;;;;;4996973;28;20030;-87
2023/03/23 08:27:26;;;;;;;0.00;0.00;;;13.80;99.90;;;;;;4994282;28;20018;-89
2023/03/23 08:29:51;;;;;;;0.00;0.00;;;13.90;99.90;;;;;;4994285;28;20531;-87
2023/03/23 08:32:17;;;;;;;0.00;0.00;;;14.00;99.90;;;;;;4991374;28;20026;-86
2023/03/23 08:34:42;;;;;;;0.00;0.00;;;14.00;99.90;;;;;;4988692;28;20031;-86
2023/03/23 08:37:09;;;;;;;0.05;0.05;;;14.20;99.90;;;;;;4990659;28;20080;-87
2023/03/23 08:39:35;;;;;;;0.00;0.00;;;14.10;99.90;;;;;;4988768;28;20041;-86
2023/03/23 08:42:00;;;;;;;0.00;0.00;;;14.20;99.90;;;;;;4985521;28;20038;-86
2023/03/23 08:44:26;;;;;;;0.00;0.00;;;14.30;99.90;;;;;;5002088;28;20033;-87
2023/03/23 08:46:56;;;;;;;0.00;0.00;;;14.30;99.90;;;;;;4996355;28;20073;-88
2023/03/23 08:49:22;;;;;;;0.00;0.00;;;14.30;99.90;;;;;;4986660;28;20398;-87
2023/03/23 08:51:48;;;;;;;0.00;0.00;;;14.40;99.90;;;;;;4987755;28;20397;-88
2023/03/23 08:54:14;;;;;;;0.00;0.00;;;14.50;99.90;;;;;;4991460;28;20030;-87
2023/03/23 08:56:39;;;;;;;0.00;0.00;;;14.40;99.90;;;;;;5000976;28;20133;-87
2023/03/23 08:59:05;;;;;;;0.00;0.00;;;14.50;99.90;;;;;;4996644;28;20026;-86
2023/03/23 09:01:31;;;;;;;0.00;0.00;;;14.60;99.90;;;;;;4996328;28;20072;-87
2023/03/23 09:03:58;;;;;;;0.00;0.00;;;14.60;99.90;;;;;;4992887;28;20022;-87
2023/03/23 09:06:24;;;;;;;0.00;0.00;;;14.60;99.90;;;;;;5004304;28;20026;-88
2023/03/23 09:08:49;;;;;;;0.00;0.00;;;14.80;99.90;;;;;;4995583;28;20027;-89
2023/03/23 09:11:15;;;;;;;0.00;0.00;;;14.70;99.90;;;;;;4998971;28;20014;-86
2023/03/23 09:13:41;;;;;;;0.00;0.00;;;14.70;99.90;;;;;;4993436;28;20030;-87
2023/03/23 09:16:08;;;;;;;0.00;0.00;;;14.60;99.90;;;;;;4999514;28;20042;-87
2023/03/23 09:18:34;;;;;;;0.00;0.00;;;14.50;99.90;;;;;;5000417;28;20030;-88
2023/03/23 09:21:01;;;;;;;0.00;0.00;;;14.60;99.90;;;;;;4998700;28;20120;-87
2023/03/23 09:23:27;;;;;;;0.00;0.00;;;14.60;99.90;;;;;;5011982;28;20031;-88
2023/03/23 09:25:53;;;;;;;0.00;0.00;;;14.80;99.90;;;;;;4990137;28;20029;-86
2023/03/23 09:28:19;;;;;;;0.00;0.00;;;14.80;99.90;;;;;;5003450;28;20097;-87
2023/03/23 09:30:47;;;;;;;0.00;0.00;;;14.90;99.90;;;;;;4991492;28;20070;-89
2023/03/23 09:33:13;;;;;;;0.00;0.00;;;15.00;99.90;;;;;;4997412;28;20113;-87
2023/03/23 09:35:41;;;;;;;0.00;0.00;;;15.10;99.90;;;;;;4993230;28;20035;-87
2023/03/23 09:38:07;;;;;;;0.00;0.00;;;;;;;;;;4998450;28;20438;-87
2023/03/23 09:40:48;;;;;;;0.00;0.00;;;15.30;99.90;;;;;;5001839;28;20030;-87
2023/03/23 09:43:54;;;;;;;0.00;0.00;;;15.40;99.90;;;;;;5002116;28;20452;-86
2023/03/23 09:46:41;;;;;;;0.00;0.00;;;15.40;99.90;;;;;;4980518;28;20498;-89
2023/03/23 09:49:51;;;;;;;0.00;0.00;;;15.40;99.90;;;;;;4995644;28;20018;-89
2023/03/23 09:52:18;;;;;;;0.00;0.00;;;15.20;99.90;;;;;;4977527;28;20114;-86
2023/03/23 09:54:50;;;;;;;0.00;0.00;;;15.30;99.90;;;;;;4962605;28;20575;-86
2023/03/23 09:57:32;;;;;;;0.10;0.10;;;15.20;99.90;;;;;;4982557;28;20508;-87
2023/03/23 10:00:07;;;;;;;0.00;0.00;;;15.10;99.90;;;;;;4998597;28;20073;-87
2023/03/23 10:02:41;;;;;;;0.00;0.00;;;15.10;99.90;;;;;;4995410;28;20118;-86
2023/03/23 10:05:33;;;;;;;0.00;0.00;;;15.10;99.90;;;;;;4996130;28;20061;-88
2023/03/23 10:08:00;;;;;;;0.00;0.00;;;15.10;99.90;;;;;;4993447;28;20026;-89
2023/03/23 10:10:44;;;;;;;0.00;0.00;;;15.10;99.90;;;;;;5012404;28;20370;-86
2023/03/23 10:13:26;;;;;;;0.00;0.00;;;15.20;99.90;;;;;;4996325;28;20073;-88
2023/03/23 10:15:54;;;;;;;0.00;0.00;;;15.30;99.90;;;;;;4996257;28;20035;-87
2023/03/23 10:18:42;;;;;;;0.10;0.10;;;15.40;99.90;;;;;;5009291;28;20035;-87
2023/03/23 10:21:16;;;;;;;0.00;0.00;;;15.40;99.90;;;;;;4992802;28;20033;-88
2023/03/23 10:23:53;;;;;;;0.00;0.00;;;15.30;99.90;;;;;;4995350;28;20058;-89
2023/03/23 10:26:33;;;;;;;0.00;0.00;;;15.40;99.90;;;;;;4989591;28;20030;-86
2023/03/23 10:29:17;;;;;;;0.00;0.00;;;15.60;99.90;;;;;;4995220;28;20026;-87
2023/03/23 10:31:52;;;;;;;0.00;0.00;;;15.70;99.90;;;;;;4995416;28;20026;-87
2023/03/23 10:34:40;;;;;;;0.00;0.00;;;15.90;99.90;;;;;;5000620;28;20532;-90
2023/03/23 10:37:09;;;;;;;0.00;0.00;;;16.10;99.90;;;;;;5001299;28;20027;-90
2023/03/23 10:39:45;;;;;;;0.00;0.00;;;16.20;99.90;;;;;;5004901;28;20041;-91
2023/03/23 10:42:11;;;;;;;0.00;0.00;;;16.40;99.90;;;;;;5002504;28;20045;-91
2023/03/23 10:44:37;;;;;;;0.00;0.00;;;16.60;99.90;;;;;;5017104;28;20035;-91
2023/03/23 10:47:06;;;;;;;0.00;0.00;;;16.70;99.90;;;;;;5010023;28;20023;-90
2023/03/23 10:49:43;;;;;;;0.00;0.00;;;16.60;99.90;;;;;;4993346;28;20026;-90
2023/03/23 10:52:35;;;;;;;0.00;0.00;;;16.40;99.90;;;;;;4997583;28;20031;-90
2023/03/23 10:55:11;;;;;;;0.00;0.00;;;16.50;99.90;;;;;;4993927;28;20023;-90
2023/03/23 10:57:39;;;;;;;0.00;0.00;;;16.80;99.90;;;;;;4998499;28;20061;-91
2023/03/23 11:00:06;;;;;;;0.00;0.00;;;16.80;99.90;;;;;;5025558;28;20029;-90
2023/03/23 11:02:39;;;;;;;0.00;0.00;;;16.80;99.90;;;;;;5011895;28;20026;-90
2023/03/23 11:05:23;;;;;;;0.00;0.00;;;16.60;99.90;;;;;;4996846;28;20049;-90
2023/03/23 11:07:57;;;;;;;0.00;0.00;;;16.40;99.90;;;;;;4997919;28;20049;-90
2023/03/23 11:10:36;;;;;;;0.00;0.00;;;16.40;99.90;;;;;;4992332;28;20470;-90
2023/03/23 11:13:04;;;;;;;0.00;0.00;;;16.20;99.90;;;;;;5000027;28;20026;-90
2023/03/23 11:15:42;;;;;;;0.00;0.00;;;15.90;99.90;;;;;;5008589;28;20045;-90
2023/03/23 11:18:13;;;;;;;0.00;0.00;;;14.80;99.90;;;;;;4993268;28;20385;-90
2023/03/23 11:20:44;;;;;;;0.00;0.00;;;14.70;99.90;;;;;;4994300;28;20098;-90
2023/03/23 11:23:22;;;;;;;0.00;0.00;;;14.50;99.90;;;;;;5001729;28;20022;-90
2023/03/23 11:25:57;;;;;;;0.00;0.00;;;14.50;99.90;;;;;;4999578;28;20373;-91
2023/03/23 11:28:28;;;;;;;0.00;0.00;;;14.60;99.90;;;;;;4993811;28;20023;-89
2023/03/23 11:30:55;;;;;;;0.00;0.00;;;14.40;99.90;;;;;;4997646;28;20026;-91
2023/03/23 11:33:21;;;;;;;0.00;0.00;;;14.40;99.90;;;;;;4993468;28;20029;-90
2023/03/23 11:35:47;;;;;;;0.00;0.00;;;14.10;99.90;;;;;;4990597;28;20036;-89
2023/03/23 11:38:21;;;;;;;0.00;0.00;;;13.90;99.90;;;;;;4991498;28;20026;-89
2023/03/23 11:40:49;;;;;;;0.00;0.00;;;13.80;99.90;;;;;;5002977;28;20029;-90
2023/03/23 11:43:19;;;;;;;0.00;0.00;;;13.90;99.90;;;;;;4991181;28;20615;-89
2023/03/23 11:45:52;;;;;;;0.00;0.00;;;13.90;99.90;;;;;;4989430;28;20116;-90
2023/03/23 11:48:42;;;;;;;0.00;0.00;;;13.90;99.90;;;;;;4992412;28;20129;-90
2023/03/23 11:51:20;;;;;;;0.00;0.00;;;13.80;99.90;;;;;;5002228;28;20018;-88
2023/03/23 11:54:01;;;;;;;0.00;0.00;;;13.90;99.90;;;;;;4994251;28;20026;-90
2023/03/23 11:56:38;;;;;;;0.05;0.05;;;13.80;99.90;;;;;;4987082;28;20022;-89
2023/03/23 11:59:13;;;;;;;0.00;0.00;;;13.80;99.90;;;;;;4985674;28;20022;-89
2023/03/23 12:02:00;;;;;;;0.00;0.00;;;13.70;99.90;;;;;;4991489;28;20378;-90
2023/03/23 12:04:38;;;;;;;0.00;0.00;;;13.70;99.90;;;;;;5020356;28;20065;-90
2023/03/23 12:07:07;;;;;;;0.00;0.00;;;13.60;99.90;;;;;;4999207;28;20017;-89
2023/03/23 12:09:58;;;;;;;0.00;0.00;;;13.50;99.90;;;;;;5006418;28;20089;-89
2023/03/23 12:12:23;;;;;;;0.00;0.00;;;13.50;99.90;;;;;;4993514;28;20030;-90
2023/03/23 12:15:13;;;;;;;0.00;0.00;;;13.40;99.90;;;;;;4993852;28;20125;-89
2023/03/23 12:17:46;;;;;;;0.00;0.00;;;13.20;99.90;;;;;;4983410;28;20026;-91
2023/03/23 12:20:29;;;;;;;0.00;0.00;;;13.20;99.90;;;;;;4980003;28;20112;-90
2023/03/23 12:23:22;;;;;;;0.00;0.00;;;13.30;99.90;;;;;;4993859;28;20053;-88
2023/03/23 12:26:06;;;;;;;0.00;0.00;;;13.50;99.90;;;;;;4998850;28;20160;-90
2023/03/23 12:28:46;;;;;;;0.00;0.00;;;13.60;99.90;;;;;;4989032;28;20490;-90
2023/03/23 12:31:37;;;;;;;0.00;0.00;;;13.60;99.90;;;;;;4986990;28;20029;-90
2023/03/23 12:34:40;;;;;;;0.00;0.00;;;13.50;99.90;;;;;;4986363;28;20014;-90
2023/03/23 12:37:31;;;;;;;0.00;0.00;;;13.50;99.90;;;;;;4982442;28;20019;-90
2023/03/23 12:40:17;;;;;;;0.10;0.10;;;13.10;99.90;;;;;;4993824;28;20030;-89
2023/03/23 12:43:11;;;;;;;0.00;0.00;;;13.20;99.90;;;;;;4992622;28;20401;-88
2023/03/23 12:46:03;;;;;;;0.00;0.00;;;13.20;99.90;;;;;;4993877;28;20035;-90
2023/03/23 12:48:48;;;;;;;0.00;0.00;;;13.20;99.90;;;;;;4996636;28;20030;-90
2023/03/23 12:51:26;;;;;;;0.00;0.00;;;13.30;99.90;;;;;;4995953;28;20023;-89
2023/03/23 12:54:26;;;;;;;0.00;0.00;;;13.30;99.90;;;;;;4993731;28;20764;-90
2023/03/23 12:56:55;;;;;;;;;;;13.30;99.90;;;;;;5018220;28;20603;-90
2023/03/23 12:59:21;;;;;;;0.00;0.00;;;;;;;;;;4992846;28;19964;-89
2023/03/23 13:01:54;;;;;;;0.00;0.00;;;13.20;99.90;;;;;;4991452;28;20556;-90
2023/03/23 13:04:29;;;;;;;0.00;0.00;;;13.30;99.90;;;;;;5015774;28;20037;-90
2023/03/23 13:06:57;;;;;;;0.00;0.00;;;13.30;99.90;;;;;;4996004;28;20121;-90
2023/03/23 13:09:26;;;;;;;0.00;0.00;;;13.20;99.90;;;;;;5010646;28;20014;-90
2023/03/23 13:11:53;;;;;;;0.00;0.00;;;13.20;99.90;;;;;;4998750;28;20042;-90
2023/03/23 13:14:56;;;;;;;0.00;0.00;;;13.30;99.90;;;;;;4998610;28;20030;-91
2023/03/23 13:17:28;;;;;;;0.00;0.00;;;13.50;99.90;;;;;;4987387;28;20034;-90
2023/03/23 13:19:59;;;;;;;0.00;0.00;;;13.50;99.90;;;;;;4989836;28;20034;-89
2023/03/23 13:22:44;;;;;;;0.00;0.00;;;13.50;99.90;;;;;;4981420;28;20031;-89
2023/03/23 13:25:25;;;;;;;0.00;0.00;;;13.50;99.90;;;;;;4991664;28;20066;-89
2023/03/23 13:27:59;;;;;;;0.00;0.00;;;13.50;99.90;;;;;;4989772;28;20410;-90
2023/03/23 13:30:25;;;;;;;0.00;0.00;;;13.50;99.90;;;;;;4990964;28;20027;-90
2023/03/23 13:32:52;;;;;;;0.00;0.00;;;13.50;99.90;;;;;;4995623;28;20022;-90
2023/03/23 13:35:21;;;;;;;0.00;0.00;;;13.50;99.90;;;;;;4993636;28;20081;-90
2023/03/23 13:37:51;;;;;;;0.00;0.00;;;13.80;99.90;;;;;;4995124;28;20027;-89
2023/03/23 13:40:23;;;;;;;;;;;13.80;99.90;;;;;;4998464;28;20362;-90
2023/03/23 13:42:54;;;;;;;0.00;0.00;;;13.90;99.90;;;;;;4996511;28;19917;-90
2023/03/23 13:45:46;;;;;;;0.00;0.00;;;13.90;99.90;;;;;;5013836;28;20031;-90
2023/03/23 13:48:11;;;;;;;0.00;0.00;;;14.00;99.90;;;;;;5013601;28;20018;-90
2023/03/23 13:50:54;;;;;;;0.00;0.00;;;14.20;99.90;;;;;;5017077;28;20033;-90
2023/03/23 13:53:46;;;;;;;0.10;0.10;;;14.30;99.90;;;;;;5017741;28;20130;-89
2023/03/23 13:56:21;;;;;;;0.00;0.00;;;14.30;99.90;;;;;;5000102;28;20022;-89
2023/03/23 13:58:56;;;;;;;0.00;0.00;;;14.20;99.90;;;;;;5013884;28;20034;-90
2023/03/23 14:01:35;;;;;;;0.00;0.00;;;14.40;99.90;;;;;;4996828;28;20497;-90
2023/03/23 14:04:04;;;;;;;0.00;0.00;;;14.70;99.90;;;;;;5006903;28;20026;-89
2023/03/23 14:06:35;;;;;;;0.00;0.00;;;14.90;99.90;;;;;;5019229;28;20057;-90
2023/03/23 14:09:19;;;;;;;0.00;0.00;;;15.00;99.90;;;;;;5004335;28;20052;-90
2023/03/23 14:11:57;;;;;;;0.00;0.00;;;15.00;99.90;;;;;;4985378;28;20029;-90
2023/03/23 14:14:35;;;;;;;0.00;0.00;;;14.80;99.90;;;;;;4981609;28;20393;-89
2023/03/23 14:17:13;;;;;;;0.00;0.00;;;14.70;99.90;;;;;;4994719;28;20385;-90
2023/03/23 14:19:41;;;;;;;0.00;0.00;;;14.20;99.90;;;;;;5016550;28;20145;-90
2023/03/23 14:22:23;;;;;;;0.00;0.00;;;14.20;99.90;;;;;;5022245;28;20026;-90
2023/03/23 14:24:49;;;;;;;0.00;0.00;;;14.20;99.90;;;;;;4997003;28;20030;-89
2023/03/23 14:27:20;;;;;;;0.00;0.00;;;14.30;99.90;;;;;;4998346;28;20030;-90
2023/03/23 14:29:46;;;;;;;0.00;0.00;;;14.30;99.90;;;;;;5019450;28;20026;-90
2023/03/23 14:32:17;;;;;;;0.00;0.00;;;14.20;99.90;;;;;;5005259;28;20072;-90
2023/03/23 14:34:46;;;;;;;0.00;0.00;;;14.30;99.90;;;;;;5005888;28;20038;-90
2023/03/23 14:37:14;;;;;;;0.00;0.00;;;14.20;99.90;;;;;;5010595;28;20060;-89
2023/03/23 14:39:39;;;;;;;0.00;0.00;;;14.20;99.90;;;;;;4996253;28;20037;-90
2023/03/23 14:42:12;;;;;;;0.00;0.00;;;14.20;99.90;;;;;;4997782;28;20029;-90
2023/03/23 14:44:44;;;;;;;0.00;0.00;;;14.40;99.90;;;;;;5022077;28;20402;-90
2023/03/23 14:47:38;;;;;;;0.00;0.00;;;14.70;99.90;;;;;;5010596;28;20053;-90
2023/03/23 14:50:06;;;;;;;0.00;0.00;;;14.80;99.90;;;;;;4995767;28;20018;-89